Flight Track Log - Related Links

Times and Time Zones

All times are in EDT time to prevent confusion due to time zone crossing. See the CES2376 flight status page for this flight to view local times or setup timezone preferences in your user account.

Time Position Orientation Groundspeed Altitude Reporting Facility
EDT Latitude Longitude Course Direction KTS MPH feet Rate Location/Type
Sat 03:39:00 AM 36.2092 96.9423 96° East  Level Estimated
Sat 03:40:00 AM 36.1951 97.0857 97° East  Level Estimated
Sat 03:41:00 AM 36.1808 97.2290 97° East  Level Estimated
Sat 03:42:00 AM 36.1664 97.3723 97° East  Level Estimated
Sat 03:43:00 AM 36.1518 97.5154 97° East  Level Estimated
Sat 03:44:00 AM 36.1370 97.6586 97° East  Level Estimated
Sat 03:45:00 AM 36.1220 97.8017 97° East  Level Estimated
Sat 03:46:00 AM 36.1069 97.9447 97° East  Level Estimated
Sat 03:47:00 AM 36.0916 98.0877 97° East  Level Estimated
Sat 03:48:00 AM 36.0762 98.2306 98° East  Level Estimated
Sat 03:49:00 AM 36.0605 98.3735 98° East  Level Estimated
Sat 03:50:00 AM 36.0447 98.5163 98° East  Level Estimated
Sat 03:51:00 AM 36.0288 98.6591 98° East  Level Estimated
Sat 03:52:00 AM 36.0126 98.8018 98° East  Level Estimated
Sat 03:53:00 AM 35.9963 98.9444 98° East  Level Estimated
Sat 03:54:00 AM 35.9799 99.0870 98° East  Level Estimated
Sat 03:55:00 AM 35.9632 99.2295 98° East  Level Estimated
Sat 03:56:00 AM 35.9464 99.3720 98° East  Level Estimated
Sat 03:57:00 AM 35.9294 99.5144 98° East  Level Estimated
Sat 03:58:00 AM 35.9123 99.6567 98° East  Level Estimated
Sat 03:59:00 AM 35.8950 99.7990 99° East  Level Estimated
Sat 04:00:00 AM 35.8775 99.9412 99° East  Level Estimated
Sat 04:01:00 AM 35.8598 100.0834 99° East  Level Estimated
Sat 04:02:00 AM 35.8420 100.2254 99° East  Level Estimated
Sat 04:03:00 AM 35.8240 100.3675 99° East  Level Estimated
Sat 04:04:00 AM 35.8059 100.5094 99° East  Level Estimated
Sat 04:05:00 AM 35.7876 100.6513 99° East  Level Estimated
Sat 04:06:00 AM 35.7691 100.7932 99° East  Level Estimated
Sat 04:07:00 AM 35.7504 100.9349 99° East  Level Estimated
Sat 04:08:00 AM 35.7316 101.0766 99° East  Level Estimated
Sat 04:09:00 AM 35.7126 101.2182 99° East  Level Estimated
Sat 04:10:00 AM 35.6935 101.3598 99° East  Level Estimated
Sat 04:11:00 AM 35.6741 101.5013 99° East  Level Estimated
Sat 04:12:00 AM 35.6547 101.6427 100° East  Level Estimated
Sat 04:13:00 AM 35.6350 101.7841 100° East  Level Estimated
Sat 04:14:00 AM 35.6152 101.9253 100° East  Level Estimated
Sat 04:15:00 AM 35.5952 102.0666 100° East  Level Estimated
Sat 04:16:00 AM 35.5751 102.2077 100° East  Level Estimated
Sat 04:17:00 AM 35.5548 102.3488 100° East  Level Estimated
Sat 04:18:00 AM 35.5343 102.4898 100° East  Level Estimated
Sat 04:19:00 AM 35.5137 102.6307 100° East  Level Estimated
Sat 04:20:00 AM 35.4929 102.7716 100° East  Level Estimated
Sat 04:21:00 AM 35.4719 102.9123 100° East  Level Estimated
Sat 04:22:00 AM 35.4508 103.0530 100° East  Level Estimated
Sat 04:23:00 AM 35.4295 103.1937 100° East  Level Estimated
Sat 04:24:00 AM 35.4081 103.3342 101° East  Level Estimated
Sat 04:25:00 AM 35.3865 103.4747 101° East  Level Estimated
Sat 04:26:00 AM 35.3647 103.6151 101° East  Level Estimated
Sat 04:27:00 AM 35.3427 103.7554 101° East  Level Estimated
Sat 04:28:00 AM 35.3206 103.8957 101° East  Level Estimated
Sat 04:29:00 AM 35.2984 104.0359 101° East  Level Estimated
Sat 04:30:00 AM 35.2760 104.1760 101° East  Level Estimated
Sat 04:31:00 AM 35.2534 104.3160 101° East  Level Estimated
Sat 04:32:00 AM 35.2306 104.4559 101° East  Level Estimated
Sat 04:33:00 AM 35.2077 104.5958 101° East  Level Estimated
Sat 04:34:00 AM 35.1847 104.7356 101° East  Level Estimated
Sat 04:35:00 AM 35.1614 104.8753 101° East  Level Estimated
Sat 04:36:00 AM 35.1380 105.0149 102° East  Level Estimated
Sat 04:37:00 AM 35.1145 105.1545 102° East  Level Estimated
Sat 04:38:00 AM 35.0908 105.2940 102° East  Level Estimated
Sat 04:39:00 AM 35.0669 105.4333 102° East  Level Estimated
Sat 04:40:00 AM 35.0429 105.5726 102° East  Level Estimated
Sat 04:41:00 AM 35.0187 105.7119 102° East  Level Estimated
Sat 04:42:00 AM 34.9941 105.8524 102° East  Level Estimated
Sat 04:43:00 AM 34.9693 105.9929 102° East  Level Estimated
Sat 04:44:00 AM 34.9444 106.1333 102° East  Level Estimated
Sat 04:45:00 AM 34.9193 106.2736 102° East  Level Estimated
Sat 04:46:00 AM 34.8941 106.4138 102° East  Level Estimated
Sat 04:47:00 AM 34.8687 106.5539 102° East  Level Estimated
Sat 04:48:00 AM 34.8431 106.6940 103° East  Level Estimated
Sat 04:49:00 AM 34.8174 106.8339 103° East  Level Estimated
Sat 04:50:00 AM 34.7915 106.9738 103° East  Level Estimated
Sat 04:51:00 AM 34.7655 107.1136 103° East  Level Estimated
Sat 04:52:00 AM 34.7393 107.2533 103° East  Level Estimated
Sat 04:53:00 AM 34.7129 107.3929 103° East  Level Estimated
Sat 04:54:00 AM 34.6864 107.5324 103° East  Level Estimated
Sat 04:55:00 AM 34.6597 107.6718 103° East  Level Estimated
Sat 04:56:00 AM 34.6329 107.8111 103° East  Level Estimated
Sat 04:57:00 AM 34.6059 107.9504 103° East  Level Estimated
Sat 04:58:00 AM 34.5787 108.0895 103° East  Level Estimated
Sat 04:59:00 AM 34.5514 108.2286 103° East  Level Estimated
Sat 05:00:00 AM 34.5239 108.3676 103° East  Level Estimated
Sat 05:01:00 AM 34.4963 108.5064 104° East  Level Estimated
Sat 05:02:00 AM 34.4685 108.6452 104° East  Level Estimated
Sat 05:03:00 AM 34.4471 108.7516 104° East  Level Estimated
Sat 05:04:00 AM 34.4471 108.7516 North  Level Estimated
Sat 05:05:00 AM 34.4471 108.7516 North  Level Estimated
Sat 05:06:00 AM 34.4471 108.7516 North  Level Estimated
Sat 05:07:00 AM 34.4471 108.7516 North  Level Estimated
Sat 05:08:00 AM 34.4471 108.7516 North  Level Estimated
Sat 05:09:00 AM 34.4471 108.7516 North  Level Estimated
Sat 05:10:00 AM 34.4471 108.7516 North  Level Estimated
Sat 05:11:00 AM 34.4471 108.7516 North  Level Estimated
Sat 05:12:00 AM 34.4471 108.7516 North  Level Estimated
Sat 05:13:00 AM 34.4471 108.7516 North  Level Estimated
Sat 05:14:00 AM 34.4471 108.7516 North  Level Estimated
Sat 05:15:00 AM 34.4471 108.7516 North  Level Estimated
Sat 05:16:00 AM 34.4471 108.7516 North  Level Estimated
Sat 05:17:00 AM 34.4471 108.7516 North  Level Estimated
Sat 05:18:00 AM 34.4471 108.7516 North  Level Estimated
Sat 05:19:00 AM 34.4471 108.7516 North  Level Estimated
Sat 05:20:00 AM 34.4471 108.7516 North  Level Estimated
Sat 05:21:00 AM 34.4471 108.7516 North  Level Estimated
Sat 05:22:00 AM 34.4471 108.7516 North  Level Estimated

Login

Don't have an account? Register now (free) for customized features, flight alerts, and more!